Time;durP1;ratioP1;P1;durP2;ratioP2;P2;SDS_P1;SDS_P2;PMS_P1;PMS_P2;Temp;Humidity;BMP_temperature;BMP_pressure;BME280_temperature;BME280_humidity;BME280_pressure;Samples;Min_cycle;Max_cycle;Signal;HPM_P1;HPM_P2
2023/06/01 00:01:48;;;;;;;3.50;2.60;;;16.10;99.90;;;;;;5012006;28;20179;-69
2023/06/01 00:04:14;;;;;;;4.37;2.33;;;16.10;99.90;;;;;;5012198;28;20160;-69
2023/06/01 00:06:40;;;;;;;5.80;2.73;;;16.10;99.90;;;;;;5012135;28;20219;-69
2023/06/01 00:09:07;;;;;;;2.93;1.90;;;16.00;99.90;;;;;;5011830;28;20188;-69
2023/06/01 00:11:32;;;;;;;4.30;2.70;;;16.00;99.90;;;;;;5012022;28;20399;-69
2023/06/01 00:13:58;;;;;;;3.40;2.90;;;15.90;99.90;;;;;;5011953;28;20458;-69
2023/06/01 00:16:23;;;;;;;5.50;2.60;;;15.90;99.90;;;;;;5011944;28;20186;-70
2023/06/01 00:18:52;;;;;;;4.10;3.10;;;15.90;99.90;;;;;;5011756;28;20699;-69
2023/06/01 00:21:18;;;;;;;3.40;1.70;;;15.90;99.90;;;;;;5011942;28;20255;-69
2023/06/01 00:23:43;;;;;;;3.43;1.90;;;15.80;99.90;;;;;;5011935;28;20498;-69
2023/06/01 00:26:09;;;;;;;4.07;2.40;;;15.80;99.90;;;;;;5011929;28;20495;-69
2023/06/01 00:28:35;;;;;;;4.97;2.10;;;15.70;99.90;;;;;;5014673;28;20187;-69
2023/06/01 00:31:00;;;;;;;3.50;2.60;;;15.70;99.90;;;;;;5015721;28;20207;-69
2023/06/01 00:33:26;;;;;;;2.80;2.40;;;15.70;99.90;;;;;;5015741;28;20211;-69
2023/06/01 00:35:52;;;;;;;3.00;2.50;;;15.70;99.90;;;;;;5015768;28;20258;-69
2023/06/01 00:38:17;;;;;;;3.73;2.30;;;15.60;99.90;;;;;;5015336;28;20185;-69
2023/06/01 00:40:43;;;;;;;4.17;2.20;;;15.60;99.90;;;;;;5015350;28;20168;-69
2023/06/01 00:43:09;;;;;;;2.40;2.20;;;15.50;99.90;;;;;;5014839;28;20488;-69
2023/06/01 00:45:35;;;;;;;5.10;2.57;;;15.50;99.90;;;;;;5014983;28;20255;-69
2023/06/01 00:48:01;;;;;;;2.60;1.80;;;15.50;99.90;;;;;;5015041;28;20458;-69
2023/06/01 00:50:27;;;;;;;2.97;2.07;;;15.40;99.90;;;;;;5015362;28;20176;-69
2023/06/01 00:52:53;;;;;;;2.50;1.97;;;15.40;99.90;;;;;;5015543;28;20620;-69
2023/06/01 00:55:20;;;;;;;2.83;2.47;;;15.40;99.90;;;;;;5015316;28;20684;-69
2023/06/01 00:57:47;;;;;;;1.60;1.50;;;15.40;99.90;;;;;;5014925;28;20426;-69
2023/06/01 01:00:12;;;;;;;4.97;2.30;;;15.30;99.90;;;;;;5015197;28;20445;-69
2023/06/01 01:02:40;;;;;;;4.80;1.97;;;15.30;99.90;;;;;;5014742;28;20823;-69
2023/06/01 01:05:10;;;;;;;4.57;2.10;;;15.30;99.90;;;;;;5015152;28;20588;-69
2023/06/01 01:08:01;;;;;;;5.17;2.37;;;15.20;99.90;;;;;;5014788;28;20852;-69
2023/06/01 01:10:32;;;;;;;4.70;2.70;;;15.20;99.90;;;;;;5015110;28;20403;-69
2023/06/01 01:13:04;;;;;;;3.63;2.10;;;15.20;99.90;;;;;;5014898;28;20462;-69
2023/06/01 01:15:58;;;;;;;3.63;2.57;;;15.10;99.90;;;;;;5015091;28;20780;-69
2023/06/01 01:18:32;;;;;;;2.90;2.50;;;15.10;99.90;;;;;;5014540;28;20435;-69
2023/06/01 01:21:01;;;;;;;3.63;2.37;;;15.00;99.90;;;;;;5014954;28;20449;-69
2023/06/01 01:23:38;;;;;;;3.60;2.30;;;15.00;99.90;;;;;;5014694;28;20403;-69
2023/06/01 01:26:22;;;;;;;4.60;2.73;;;15.00;99.90;;;;;;5014834;28;20480;-69
2023/06/01 01:29:00;;;;;;;5.80;2.70;;;14.90;99.90;;;;;;5014348;28;20799;-69
2023/06/01 01:31:27;;;;;;;3.63;2.20;;;14.90;99.90;;;;;;5014656;28;20780;-69
2023/06/01 01:33:55;;;;;;;4.27;2.50;;;14.80;99.90;;;;;;5014516;28;20892;-69
2023/06/01 01:36:21;;;;;;;3.97;2.50;;;14.80;99.90;;;;;;5014640;28;20431;-69
2023/06/01 01:38:47;;;;;;;3.20;2.70;;;14.80;99.90;;;;;;5014063;28;20910;-69
2023/06/01 01:41:12;;;;;;;2.63;2.37;;;14.80;99.90;;;;;;5014577;28;20403;-69
2023/06/01 01:43:39;;;;;;;2.50;2.30;;;14.70;99.90;;;;;;5014524;28;20180;-69
2023/06/01 01:46:18;;;;;;;3.40;2.20;;;14.70;99.90;;;;;;5014450;28;20191;-69
2023/06/01 01:48:55;;;;;;;3.20;2.33;;;14.70;99.90;;;;;;5014016;28;20514;-69
2023/06/01 01:51:29;;;;;;;4.60;2.70;;;14.60;99.90;;;;;;5014418;28;20421;-69
2023/06/01 01:53:57;;;;;;;2.93;2.00;;;14.60;99.90;;;;;;5014220;28;21011;-69
2023/06/01 01:56:23;;;;;;;3.43;2.23;;;14.60;99.90;;;;;;5013657;28;20413;-69
2023/06/01 01:58:49;;;;;;;2.03;1.80;;;14.50;99.90;;;;;;5013820;28;20510;-69
2023/06/01 02:01:16;;;;;;;2.47;1.97;;;14.50;99.90;;;;;;5014205;28;20897;-69
2023/06/01 02:03:42;;;;;;;3.50;2.50;;;14.50;99.90;;;;;;5014078;28;20411;-69
2023/06/01 02:06:07;;;;;;;3.27;2.33;;;14.50;99.90;;;;;;5014181;28;20954;-69
2023/06/01 02:08:33;;;;;;;3.07;2.77;;;14.50;99.90;;;;;;5013767;28;20196;-69
2023/06/01 02:10:58;;;;;;;4.63;3.00;;;14.50;99.90;;;;;;5013951;28;20178;-69
2023/06/01 02:13:24;;;;;;;6.00;2.60;;;14.50;99.90;;;;;;5013835;28;20208;-69
2023/06/01 02:15:49;;;;;;;1.80;1.70;;;14.40;99.90;;;;;;5013923;28;20176;-69
2023/06/01 02:18:17;;;;;;;4.73;2.07;;;14.40;99.90;;;;;;5013535;28;20184;-69
2023/06/01 02:20:44;;;;;;;2.70;2.00;;;14.40;99.90;;;;;;4996458;28;20533;-70
2023/06/01 02:23:09;;;;;;;4.17;2.80;;;14.40;99.90;;;;;;5013801;28;20422;-69
2023/06/01 02:25:35;;;;;;;2.90;2.70;;;14.40;99.90;;;;;;5013681;28;20769;-69
2023/06/01 02:28:01;;;;;;;3.97;2.80;;;14.40;99.90;;;;;;5013303;28;20565;-69
2023/06/01 02:30:27;;;;;;;3.83;2.33;;;14.30;99.90;;;;;;5013540;28;20173;-69
2023/06/01 02:32:52;;;;;;;3.87;2.60;;;14.30;99.90;;;;;;5013536;28;20451;-69
2023/06/01 02:35:18;;;;;;;3.63;2.60;;;14.20;99.90;;;;;;5013543;28;20541;-69
2023/06/01 02:37:43;;;;;;;2.97;2.67;;;14.20;99.90;;;;;;5013173;28;20653;-69
2023/06/01 02:40:12;;;;;;;11.37;3.40;;;14.20;99.90;;;;;;5013317;28;20173;-69
2023/06/01 02:42:38;;;;;;;4.50;2.60;;;14.20;99.90;;;;;;5013438;28;20175;-69
2023/06/01 02:45:08;;;;;;;3.40;2.33;;;14.20;99.90;;;;;;5013307;28;20454;-69
2023/06/01 02:47:34;;;;;;;5.03;2.67;;;14.20;99.90;;;;;;5012801;28;20882;-70
2023/06/01 02:49:59;;;;;;;4.40;2.90;;;14.10;99.90;;;;;;5012653;28;20411;-69
2023/06/01 02:52:25;;;;;;;5.60;2.87;;;14.10;99.90;;;;;;5013152;28;20254;-70
2023/06/01 02:54:50;;;;;;;4.70;2.80;;;14.10;99.90;;;;;;5013140;28;20627;-70
2023/06/01 02:57:16;;;;;;;5.07;3.40;;;14.10;99.90;;;;;;5012825;28;20188;-70
2023/06/01 02:59:41;;;;;;;4.70;2.30;;;14.10;99.90;;;;;;5012970;28;20176;-70
2023/06/01 03:02:07;;;;;;;9.73;3.43;;;14.10;99.90;;;;;;5013039;28;20203;-70
2023/06/01 03:04:32;;;;;;;5.57;4.00;;;14.00;99.90;;;;;;5013105;28;20180;-70
2023/06/01 03:06:59;;;;;;;5.67;3.60;;;14.00;99.90;;;;;;5012714;28;20172;-70
2023/06/01 03:09:25;;;;;;;4.07;2.93;;;14.00;99.90;;;;;;5012810;28;20184;-70
2023/06/01 03:11:50;;;;;;;4.93;3.00;;;13.90;99.90;;;;;;5012783;28;20534;-70
2023/06/01 03:14:16;;;;;;;8.20;3.20;;;13.90;99.90;;;;;;5012102;28;20427;-70
2023/06/01 03:16:41;;;;;;;6.33;3.33;;;13.90;99.90;;;;;;5011980;28;20180;-70
2023/06/01 03:19:07;;;;;;;7.17;4.27;;;13.90;99.90;;;;;;5011735;28;20610;-70
2023/06/01 03:21:32;;;;;;;3.77;3.47;;;13.90;99.90;;;;;;5011938;28;20199;-70
2023/06/01 03:23:58;;;;;;;5.63;4.40;;;13.90;99.90;;;;;;5011926;28;20538;-70
2023/06/01 03:26:24;;;;;;;3.97;3.33;;;13.80;99.90;;;;;;5011804;28;20180;-70
2023/06/01 03:28:50;;;;;;;4.57;4.00;;;13.80;99.90;;;;;;5011228;28;20199;-70
2023/06/01 03:31:16;;;;;;;5.00;4.30;;;13.80;99.90;;;;;;5011645;28;20411;-69
2023/06/01 03:33:42;;;;;;;7.27;3.80;;;13.80;99.90;;;;;;5011636;28;20210;-70
2023/06/01 03:36:07;;;;;;;6.90;4.87;;;13.70;99.90;;;;;;5011759;28;20407;-70
2023/06/01 03:38:34;;;;;;;5.93;4.63;;;13.70;99.90;;;;;;5011299;28;20272;-70
2023/06/01 03:41:00;;;;;;;5.10;4.60;;;13.70;99.90;;;;;;5011722;28;20161;-70
2023/06/01 03:43:26;;;;;;;10.33;4.53;;;13.70;99.90;;;;;;5011537;28;20545;-70
2023/06/01 03:45:51;;;;;;;8.00;3.97;;;13.70;99.90;;;;;;5011646;28;20470;-70
2023/06/01 03:48:17;;;;;;;7.87;5.53;;;13.70;99.90;;;;;;5011205;28;20192;-70
2023/06/01 03:50:43;;;;;;;10.20;4.63;;;13.70;99.90;;;;;;5011479;28;20211;-70
2023/06/01 03:53:08;;;;;;;8.57;5.07;;;13.70;99.90;;;;;;5011385;28;20561;-70
2023/06/01 03:55:34;;;;;;;6.37;4.67;;;13.70;99.90;;;;;;5011494;28;20562;-70
2023/06/01 03:58:02;;;;;;;7.43;4.83;;;13.70;99.90;;;;;;5011155;28;20192;-70
2023/06/01 04:00:28;;;;;;;9.23;5.17;;;13.70;99.90;;;;;;5011475;28;20433;-70
2023/06/01 04:02:55;;;;;;;5.23;4.37;;;13.70;99.90;;;;;;5010217;28;20410;-70
2023/06/01 04:05:22;;;;;;;6.00;4.97;;;13.70;99.90;;;;;;5011214;28;20411;-70
2023/06/01 04:07:50;;;;;;;6.50;5.80;;;13.70;99.90;;;;;;5010708;28;20521;-70
2023/06/01 04:10:16;;;;;;;8.23;5.67;;;13.70;99.90;;;;;;5011148;28;20411;-70
2023/06/01 04:12:43;;;;;;;8.53;5.23;;;13.70;99.90;;;;;;4974777;28;1058130;-70
2023/06/01 04:15:13;;;;;;;7.37;5.53;;;13.70;99.90;;;;;;5012126;28;20175;-70
2023/06/01 04:17:40;;;;;;;8.60;4.83;;;13.70;99.90;;;;;;5011695;28;20779;-70
2023/06/01 04:20:11;;;;;;;11.47;6.30;;;13.80;99.90;;;;;;5012029;28;20972;-70
2023/06/01 04:22:38;;;;;;;6.90;5.70;;;13.80;99.90;;;;;;5012077;28;20421;-70
2023/06/01 04:25:07;;;;;;;8.60;5.50;;;13.80;99.90;;;;;;5011889;28;20414;-70
2023/06/01 04:27:36;;;;;;;8.40;5.87;;;13.80;99.90;;;;;;5011547;28;20490;-70
2023/06/01 04:30:03;;;;;;;10.90;6.20;;;13.80;99.90;;;;;;5011955;28;20411;-70
2023/06/01 04:32:28;;;;;;;8.57;5.77;;;13.90;99.90;;;;;;5011867;28;20450;-70
2023/06/01 04:34:56;;;;;;;7.73;5.87;;;13.90;99.90;;;;;;5011784;28;20757;-70
2023/06/01 04:37:22;;;;;;;8.50;4.93;;;13.90;99.90;;;;;;5011535;28;20231;-70
2023/06/01 04:39:51;;;;;;;9.80;4.93;;;14.00;99.90;;;;;;5011819;28;20407;-70
2023/06/01 04:42:18;;;;;;;11.27;7.40;;;14.00;99.90;;;;;;5011962;28;20176;-70
2023/06/01 04:44:49;;;;;;;11.53;5.70;;;14.10;99.90;;;;;;5011730;28;20906;-70
2023/06/01 04:47:16;;;;;;;7.67;6.37;;;14.10;99.90;;;;;;5011532;28;20464;-70
2023/06/01 04:49:42;;;;;;;12.03;6.90;;;14.20;99.90;;;;;;5011780;28;20411;-70
2023/06/01 04:52:09;;;;;;;9.43;5.50;;;14.20;99.90;;;;;;5011652;28;20403;-70
2023/06/01 04:54:36;;;;;;;12.50;6.60;;;14.30;99.90;;;;;;5011621;28;20464;-70
2023/06/01 04:57:01;;;;;;;10.30;6.33;;;14.30;99.90;;;;;;5011498;28;20399;-70
2023/06/01 04:59:27;;;;;;;11.80;6.30;;;14.40;99.90;;;;;;5011546;28;20807;-70
2023/06/01 05:01:52;;;;;;;10.47;6.60;;;14.40;99.90;;;;;;5011369;28;20172;-70
2023/06/01 05:04:18;;;;;;;10.30;6.50;;;14.50;99.90;;;;;;5011614;28;20179;-70
2023/06/01 05:06:43;;;;;;;10.40;6.60;;;14.50;99.90;;;;;;5011187;28;20543;-70
2023/06/01 05:09:09;;;;;;;12.30;9.37;;;14.60;99.90;;;;;;5011315;28;20640;-70
2023/06/01 05:11:35;;;;;;;8.67;5.83;;;14.70;99.90;;;;;;5011685;28;20169;-70
2023/06/01 05:14:02;;;;;;;17.47;7.60;;;14.80;99.90;;;;;;5013400;28;20208;-70
2023/06/01 05:16:28;;;;;;;10.07;6.70;;;14.90;99.90;;;;;;5015053;28;20164;-70
2023/06/01 05:18:55;;;;;;;12.50;8.10;;;15.00;99.90;;;;;;5014705;28;20473;-70
2023/06/01 05:21:20;;;;;;;12.67;7.90;;;15.10;99.90;;;;;;5014972;28;20176;-70
2023/06/01 05:23:46;;;;;;;15.50;9.07;;;15.20;99.90;;;;;;5014897;28;20455;-71
2023/06/01 05:26:11;;;;;;;13.90;8.40;;;15.30;99.90;;;;;;5014801;28;20557;-70
2023/06/01 05:28:37;;;;;;;15.10;8.67;;;15.50;99.90;;;;;;5014447;28;20535;-71
2023/06/01 05:31:03;;;;;;;18.77;9.27;;;15.60;99.90;;;;;;5014760;28;20726;-70
2023/06/01 05:33:28;;;;;;;12.77;8.07;;;15.80;99.90;;;;;;5014682;28;20538;-70
2023/06/01 05:35:54;;;;;;;12.87;8.23;;;16.00;99.90;;;;;;4997076;28;20462;-70
2023/06/01 05:38:20;;;;;;;12.33;8.60;;;16.20;99.90;;;;;;5014426;28;20216;-70
2023/06/01 05:40:45;;;;;;;12.77;9.43;;;16.30;99.90;;;;;;5014539;28;20179;-70
2023/06/01 05:43:11;;;;;;;16.53;9.07;;;16.50;99.90;;;;;;5014618;28;20960;-69
2023/06/01 05:45:37;;;;;;;12.10;9.17;;;16.90;99.90;;;;;;5014443;28;20172;-69
2023/06/01 05:48:03;;;;;;;14.00;8.80;;;17.40;99.90;;;;;;5014190;28;20462;-69
2023/06/01 05:50:28;;;;;;;20.23;10.07;;;18.00;99.90;;;;;;5014518;28;20234;-69
2023/06/01 05:52:54;;;;;;;11.87;9.17;;;18.60;99.90;;;;;;5014217;28;20875;-69
2023/06/01 05:55:20;;;;;;;12.23;8.87;;;19.10;99.90;;;;;;5013801;28;20625;-69
2023/06/01 05:57:45;;;;;;;12.63;10.30;;;19.50;99.90;;;;;;5013912;28;20250;-69
2023/06/01 06:00:15;;;;;;;14.40;11.67;;;20.00;99.90;;;;;;5014239;28;20183;-69
2023/06/01 06:02:44;;;;;;;16.10;10.00;;;20.70;99.90;;;;;;5014195;28;20179;-70
2023/06/01 06:05:10;;;;;;;13.23;10.60;;;21.40;99.90;;;;;;5014221;28;20469;-70
2023/06/01 06:07:36;;;;;;;12.30;9.23;;;22.00;99.90;;;;;;5013765;28;20920;-70
2023/06/01 06:10:03;;;;;;;14.40;9.20;;;22.60;99.90;;;;;;5014032;28;20715;-70
2023/06/01 06:12:28;;;;;;;15.53;10.00;;;23.30;99.90;;;;;;5013790;28;20466;-70
2023/06/01 06:14:54;;;;;;;12.60;9.67;;;24.00;99.90;;;;;;5013981;28;20412;-70
2023/06/01 06:17:19;;;;;;;11.40;8.20;;;24.70;99.00;;;;;;5013741;28;20248;-70
2023/06/01 06:19:47;;;;;;;10.97;8.27;;;25.20;94.70;;;;;;5013815;28;20179;-70
2023/06/01 06:22:13;;;;;;;14.23;9.63;;;25.30;90.20;;;;;;5013747;28;20160;-70
2023/06/01 06:24:38;;;;;;;12.63;8.67;;;25.10;84.30;;;;;;5012820;28;20908;-67
2023/06/01 06:27:04;;;;;;;11.97;10.23;;;24.70;83.50;;;;;;5013286;28;20637;-67
2023/06/01 06:29:30;;;;;;;12.70;10.50;;;24.30;83.60;;;;;;5013686;28;20281;-69
2023/06/01 06:31:55;;;;;;;11.33;9.90;;;23.80;84.80;;;;;;5013599;28;20175;-69
2023/06/01 06:34:21;;;;;;;17.03;9.77;;;23.50;87.10;;;;;;5013521;28;20204;-69
2023/06/01 06:36:46;;;;;;;16.20;12.03;;;23.30;90.20;;;;;;5013455;28;20200;-69
2023/06/01 06:39:12;;;;;;;14.27;9.83;;;23.00;90.80;;;;;;5013214;28;20720;-68
2023/06/01 06:41:40;;;;;;;12.87;10.10;;;22.80;91.60;;;;;;5013469;28;20169;-68
2023/06/01 06:44:06;;;;;;;15.83;10.97;;;22.50;92.60;;;;;;5013392;28;20944;-68
2023/06/01 06:46:31;;;;;;;10.37;9.30;;;22.20;93.30;;;;;;5013409;28;20534;-69
2023/06/01 06:48:57;;;;;;;15.50;11.03;;;22.00;94.60;;;;;;5013028;28;20203;-68
2023/06/01 06:51:22;;;;;;;23.37;11.20;;;21.90;96.30;;;;;;5013340;28;20183;-68
2023/06/01 06:53:48;;;;;;;12.57;9.63;;;21.80;97.50;;;;;;5012782;28;20204;-66
2023/06/01 06:56:13;;;;;;;12.77;10.00;;;21.60;98.70;;;;;;5013248;28;20173;-66
2023/06/01 06:58:39;;;;;;;13.63;11.17;;;21.50;99.50;;;;;;5012751;28;20234;-66
2023/06/01 07:01:05;;;;;;;13.53;11.27;;;21.40;99.90;;;;;;5013170;28;20303;-66
2023/06/01 07:03:33;;;;;;;18.40;11.43;;;21.20;99.90;;;;;;5013140;28;21175;-66
2023/06/01 07:05:59;;;;;;;18.33;12.93;;;21.10;99.90;;;;;;5013032;28;20741;-66
2023/06/01 07:08:25;;;;;;;16.07;11.73;;;21.10;99.90;;;;;;5012587;28;20427;-66
2023/06/01 07:10:52;;;;;;;25.33;13.60;;;21.10;99.90;;;;;;5012969;28;20556;-66
2023/06/01 07:13:18;;;;;;;15.67;12.50;;;21.10;99.90;;;;;;5012688;28;20817;-66
2023/06/01 07:15:43;;;;;;;18.33;14.77;;;21.10;99.90;;;;;;5012820;28;20458;-66
2023/06/01 07:18:09;;;;;;;21.03;15.13;;;21.20;99.90;;;;;;5012486;28;20216;-66
2023/06/01 07:20:34;;;;;;;19.60;13.93;;;21.10;99.90;;;;;;5012813;28;20258;-67
2023/06/01 07:23:00;;;;;;;24.13;14.17;;;21.10;99.90;;;;;;5012647;28;20168;-67
2023/06/01 07:25:26;;;;;;;20.77;15.63;;;21.30;99.90;;;;;;5012764;28;20680;-66
2023/06/01 07:27:52;;;;;;;22.63;14.43;;;21.40;99.90;;;;;;5012340;28;20187;-66
2023/06/01 07:30:17;;;;;;;19.90;14.50;;;21.40;99.90;;;;;;5012724;28;20164;-67
2023/06/01 07:32:43;;;;;;;23.43;14.80;;;21.50;99.90;;;;;;5012525;28;20451;-67
2023/06/01 07:35:09;;;;;;;20.20;14.27;;;21.60;99.90;;;;;;5012524;28;20196;-66
2023/06/01 07:37:35;;;;;;;20.90;14.30;;;21.70;99.90;;;;;;5011951;28;20778;-66
2023/06/01 07:40:01;;;;;;;18.70;15.27;;;21.70;99.90;;;;;;5012500;28;20514;-65
2023/06/01 07:42:26;;;;;;;23.00;16.07;;;21.90;99.90;;;;;;5012483;28;20532;-67
2023/06/01 07:44:53;;;;;;;20.67;14.30;;;22.00;99.90;;;;;;5012446;28;20196;-66
2023/06/01 07:47:18;;;;;;;16.27;13.77;;;22.20;99.40;;;;;;5012030;28;20191;-67
2023/06/01 07:49:44;;;;;;;18.23;12.20;;;22.30;99.00;;;;;;5012093;28;20796;-68
2023/06/01 07:52:09;;;;;;;18.67;15.10;;;22.50;98.40;;;;;;5012229;28;20175;-67
2023/06/01 07:54:36;;;;;;;16.40;13.33;;;22.90;97.10;;;;;;5012309;28;20164;-68
2023/06/01 07:57:04;;;;;;;16.50;11.80;;;23.30;95.20;;;;;;5012009;28;20165;-67
2023/06/01 07:59:29;;;;;;;11.90;10.47;;;23.80;93.50;;;;;;5012291;28;20835;-67
2023/06/01 08:01:56;;;;;;;20.63;12.10;;;24.20;91.40;;;;;;5012303;28;20454;-67
2023/06/01 08:04:22;;;;;;;13.60;12.07;;;24.40;86.70;;;;;;5012248;28;20294;-68
2023/06/01 08:06:52;;;;;;;13.87;12.40;;;24.60;82.40;;;;;;5012080;28;20967;-68
2023/06/01 08:09:21;;;;;;;15.80;12.00;;;24.90;80.90;;;;;;5012022;28;20489;-68
2023/06/01 08:11:48;;;;;;;15.33;13.23;;;25.10;77.90;;;;;;5012157;28;20549;-68
2023/06/01 08:14:13;;;;;;;17.60;12.60;;;25.30;74.80;;;;;;5011967;28;20470;-68
2023/06/01 08:16:39;;;;;;;13.87;12.23;;;25.60;72.90;;;;;;5012084;28;20407;-68
2023/06/01 08:19:04;;;;;;;19.80;15.63;;;26.00;69.80;;;;;;5011746;28;20204;-68
2023/06/01 08:21:30;;;;;;;12.70;10.90;;;26.80;68.70;;;;;;5012004;28;20164;-68
2023/06/01 08:23:55;;;;;;;13.37;10.80;;;28.20;66.50;;;;;;5012015;28;20172;-70
2023/06/01 08:26:25;;;;;;;10.83;9.33;;;30.40;58.70;;;;;;5011651;28;20184;-69
2023/06/01 08:28:53;;;;;;;10.47;9.37;;;32.70;51.80;;;;;;5011563;28;20184;-68
2023/06/01 08:31:23;;;;;;;12.07;10.83;;;34.00;46.60;;;;;;5011988;28;20457;-69
2023/06/01 08:33:53;;;;;;;10.17;8.40;;;35.70;42.30;;;;;;5011843;28;20821;-69
2023/06/01 08:36:20;;;;;;;10.03;8.33;;;37.50;38.60;;;;;;5011660;28;20407;-69
2023/06/01 08:38:46;;;;;;;12.63;9.17;;;39.30;35.50;;;;;;5011459;28;20883;-69
2023/06/01 08:41:26;;;;;;;10.30;9.30;;;40.80;32.30;;;;;;5011735;28;20482;-69
2023/06/01 08:44:04;;;;;;;9.30;8.43;;;42.10;30.00;;;;;;5011776;28;20498;-71
2023/06/01 08:46:32;;;;;;;10.57;9.60;;;43.40;28.20;;;;;;5011789;28;20416;-70
2023/06/01 08:48:58;;;;;;;11.53;10.10;;;44.30;26.80;;;;;;5013360;28;20522;-73
2023/06/01 08:51:25;;;;;;;10.23;9.43;;;45.00;25.40;;;;;;5015479;28;20381;-73
2023/06/01 08:53:52;;;;;;;8.87;8.27;;;45.70;24.90;;;;;;5015411;28;20421;-72
2023/06/01 08:56:18;;;;;;;11.43;10.63;;;46.50;24.20;;;;;;5015502;28;20407;-72
2023/06/01 08:58:44;;;;;;;9.80;9.00;;;47.30;23.50;;;;;;5015023;28;20973;-72
2023/06/01 09:01:16;;;;;;;10.77;9.87;;;47.80;22.80;;;;;;5015314;28;20407;-71
2023/06/01 09:03:42;;;;;;;10.40;9.70;;;48.20;22.40;;;;;;5015162;28;20660;-72
2023/06/01 09:06:09;;;;;;;9.63;8.93;;;48.80;22.00;;;;;;5015282;28;20382;-71
2023/06/01 09:08:34;;;;;;;9.83;9.20;;;49.30;21.60;;;;;;5014912;28;20184;-72
2023/06/01 09:11:00;;;;;;;11.43;10.43;;;49.70;21.20;;;;;;5015184;28;20870;-72
2023/06/01 09:13:33;;;;;;;10.57;9.67;;;49.90;20.50;;;;;;5015020;28;20214;-72
2023/06/01 09:15:59;;;;;;;10.63;9.83;;;50.20;20.80;;;;;;5014902;28;20649;-72
2023/06/01 09:18:25;;;;;;;11.20;10.33;;;50.60;20.50;;;;;;5014974;28;20425;-72
2023/06/01 09:20:53;;;;;;;10.27;9.37;;;50.80;20.50;;;;;;5015030;28;20534;-72
2023/06/01 09:23:25;;;;;;;10.93;10.13;;;51.10;20.00;;;;;;5014983;28;20168;-72
2023/06/01 09:26:05;;;;;;;10.33;9.60;;;51.30;19.60;;;;;;5014933;28;20406;-72
2023/06/01 09:28:57;;;;;;;10.13;9.33;;;51.50;19.70;;;;;;5014567;28;20480;-72
2023/06/01 09:31:47;;;;;;;11.40;10.50;;;52.00;19.40;;;;;;5026083;28;20421;-72
2023/06/01 09:34:20;;;;;;;11.37;10.37;;;52.40;19.30;;;;;;5014423;28;20459;-69
2023/06/01 09:36:50;;;;;;;13.43;12.10;;;52.70;19.30;;;;;;5014546;28;20551;-70
2023/06/01 09:39:18;;;;;;;12.70;11.80;;;53.10;19.00;;;;;;5014333;28;20510;-70
2023/06/01 09:41:45;;;;;;;12.47;11.40;;;53.20;18.80;;;;;;5014488;28;20473;-70
2023/06/01 09:44:11;;;;;;;13.30;12.30;;;53.20;18.60;;;;;;5014242;28;20803;-70
2023/06/01 09:47:11;;;;;;;12.33;11.20;;;53.20;18.40;;;;;;5014316;28;20752;-69
2023/06/01 09:49:42;;;;;;;13.07;12.07;;;53.50;18.30;;;;;;5003273;28;20549;-71
2023/06/01 09:52:07;;;;;;;15.93;14.50;;;53.50;18.20;;;;;;5013015;28;20445;-70
2023/06/01 09:54:36;;;;;;;17.77;16.33;;;53.40;17.80;;;;;;5013999;28;20472;-71
2023/06/01 09:57:03;;;;;;;16.23;15.03;;;53.30;17.90;;;;;;5013941;28;20176;-70
2023/06/01 09:59:37;;;;;;;17.37;15.87;;;53.40;17.70;;;;;;5014079;28;20427;-71
2023/06/01 10:02:04;;;;;;;16.23;14.67;;;53.30;17.90;;;;;;5013937;28;20406;-71
2023/06/01 10:04:30;;;;;;;16.37;15.17;;;53.30;18.00;;;;;;5013954;28;20438;-70
2023/06/01 10:06:57;;;;;;;17.53;16.23;;;53.40;17.90;;;;;;5013815;28;20415;-70
2023/06/01 10:09:24;;;;;;;16.67;15.40;;;53.60;18.00;;;;;;5013752;28;20203;-70
2023/06/01 10:11:53;;;;;;;18.80;17.40;;;53.60;17.80;;;;;;5014089;28;20410;-70
2023/06/01 10:14:21;;;;;;;16.50;15.30;;;53.40;17.60;;;;;;5013867;28;20438;-71
2023/06/01 10:16:50;;;;;;;19.47;17.77;;;53.20;17.80;;;;;;5013887;28;20989;-71
2023/06/01 10:19:16;;;;;;;17.40;16.20;;;53.30;17.70;;;;;;5012538;28;20431;-72
2023/06/01 10:21:44;;;;;;;16.93;15.63;;;53.50;17.80;;;;;;5013953;28;20407;-72
2023/06/01 10:24:10;;;;;;;18.43;16.83;;;53.70;17.70;;;;;;5013763;28;20556;-71
2023/06/01 10:27:02;;;;;;;20.83;19.13;;;54.10;17.50;;;;;;5013763;28;20407;-71
2023/06/01 10:29:30;;;;;;;18.43;17.03;;;54.20;17.30;;;;;;5010947;28;20200;-71
2023/06/01 10:31:57;;;;;;;20.90;19.30;;;54.00;17.40;;;;;;5013629;28;20403;-71
2023/06/01 10:34:38;;;;;;;23.47;21.20;;;54.00;17.20;;;;;;5012353;28;20419;-71
2023/06/01 10:37:03;;;;;;;19.30;17.73;;;53.90;16.70;;;;;;5013426;28;20418;-71
2023/06/01 10:39:30;;;;;;;18.70;17.10;;;54.00;17.20;;;;;;5013376;28;20429;-72
2023/06/01 10:41:57;;;;;;;18.27;16.87;;;54.20;17.20;;;;;;5013521;28;20171;-72
2023/06/01 10:44:44;;;;;;;18.90;17.50;;;54.30;17.10;;;;;;5013425;28;20794;-72
2023/06/01 10:47:12;;;;;;;18.37;16.67;;;54.50;17.00;;;;;;5013103;28;20435;-71
2023/06/01 10:49:47;;;;;;;16.80;15.40;;;54.60;17.00;;;;;;5013191;28;20423;-72
2023/06/01 10:52:33;;;;;;;18.13;16.63;;;54.70;16.90;;;;;;5013151;28;20410;-72
2023/06/01 10:55:10;;;;;;;17.43;15.90;;;54.80;16.80;;;;;;5013229;28;20476;-71
2023/06/01 10:57:37;;;;;;;17.00;14.33;;;54.80;16.60;;;;;;5012891;28;20506;-72
2023/06/01 11:00:24;;;;;;;15.10;13.90;;;54.90;16.80;;;;;;5013059;28;20482;-72
2023/06/01 11:03:01;;;;;;;15.93;14.57;;;55.00;16.80;;;;;;5012939;28;20970;-72
2023/06/01 11:05:43;;;;;;;14.83;13.53;;;55.20;16.80;;;;;;5011799;28;20468;-71
2023/06/01 11:08:24;;;;;;;14.67;13.30;;;55.40;16.60;;;;;;5012783;28;20484;-70
2023/06/01 11:11:03;;;;;;;13.60;12.57;;;55.40;16.70;;;;;;5012482;28;20446;-71
2023/06/01 11:13:31;;;;;;;12.03;11.00;;;55.50;16.60;;;;;;5012790;28;20405;-71
2023/06/01 11:16:18;;;;;;;13.50;12.30;;;55.50;16.10;;;;;;5012861;28;20439;-70
2023/06/01 11:18:46;;;;;;;11.10;10.20;;;55.60;16.20;;;;;;5012397;28;20778;-70
2023/06/01 11:21:19;;;;;;;11.57;10.50;;;55.70;16.10;;;;;;5012762;28;20399;-71
2023/06/01 11:23:45;;;;;;;11.57;10.67;;;55.50;16.20;;;;;;5012684;28;20789;-70
2023/06/01 11:26:17;;;;;;;10.40;9.60;;;55.50;16.40;;;;;;5012652;28;20507;-71
2023/06/01 11:28:44;;;;;;;10.67;9.77;;;55.60;16.30;;;;;;5012434;28;20485;-72
2023/06/01 11:31:11;;;;;;;9.83;8.93;;;55.70;16.20;;;;;;5012596;28;20381;-71
2023/06/01 11:33:39;;;;;;;9.73;9.00;;;55.70;15.80;;;;;;5012627;28;20443;-70
2023/06/01 11:36:05;;;;;;;9.40;8.50;;;55.70;15.90;;;;;;5012518;28;20398;-70
2023/06/01 11:38:41;;;;;;;10.03;9.13;;;55.80;15.90;;;;;;5012174;28;20501;-70
2023/06/01 11:41:07;;;;;;;9.80;9.10;;;55.80;16.10;;;;;;5012616;28;20521;-70
2023/06/01 11:43:33;;;;;;;10.10;9.20;;;56.00;16.20;;;;;;5012363;28;20450;-71
2023/06/01 11:46:04;;;;;;;9.13;8.43;;;55.90;16.10;;;;;;5012301;28;20817;-70
2023/06/01 11:48:30;;;;;;;10.87;9.87;;;55.90;15.90;;;;;;5012005;28;20397;-71
2023/06/01 11:50:56;;;;;;;11.60;9.03;;;56.00;16.00;;;;;;5012336;28;20494;-70
2023/06/01 11:53:22;;;;;;;9.77;7.93;;;56.00;15.90;;;;;;5012240;28;20407;-70
2023/06/01 11:55:52;;;;;;;7.87;7.27;;;56.00;15.60;;;;;;5012302;28;20180;-70
2023/06/01 11:58:25;;;;;;;8.53;7.83;;;56.00;16.00;;;;;;5011498;28;20434;-70
2023/06/01 12:00:52;;;;;;;8.40;7.70;;;56.00;16.00;;;;;;5011861;28;20419;-70
2023/06/01 12:03:18;;;;;;;8.60;7.80;;;55.90;15.90;;;;;;4994205;28;20485;-70
2023/06/01 12:05:48;;;;;;;8.07;7.47;;;55.90;16.10;;;;;;5012089;28;20407;-70
2023/06/01 12:08:20;;;;;;;7.03;6.50;;;56.00;16.10;;;;;;5011869;28;20191;-70
2023/06/01 12:10:47;;;;;;;6.93;6.40;;;56.00;16.20;;;;;;5011947;28;20422;-70
2023/06/01 12:13:14;;;;;;;7.77;6.97;;;55.80;15.90;;;;;;5011931;28;20529;-71
2023/06/01 12:15:39;;;;;;;7.33;6.63;;;55.70;16.30;;;;;;5012128;28;20825;-70
2023/06/01 12:18:05;;;;;;;7.73;7.03;;;55.50;16.30;;;;;;5011702;28;20435;-69
2023/06/01 12:20:33;;;;;;;6.83;6.23;;;55.40;16.30;;;;;;5012088;28;20561;-69
2023/06/01 12:23:00;;;;;;;6.37;5.77;;;55.20;16.30;;;;;;5012479;28;20457;-70
2023/06/01 12:25:26;;;;;;;7.20;6.60;;;55.00;16.40;;;;;;5016060;28;20812;-71
2023/06/01 12:28:05;;;;;;;7.27;6.53;;;54.90;16.50;;;;;;5015665;28;20422;-70
2023/06/01 12:30:31;;;;;;;8.17;6.20;;;54.80;16.70;;;;;;5016033;28;20179;-70
2023/06/01 12:32:56;;;;;;;6.27;5.57;;;54.70;16.60;;;;;;5015868;28;20469;-70
2023/06/01 12:35:25;;;;;;;8.13;7.10;;;54.40;16.60;;;;;;5015626;28;20912;-71
2023/06/01 12:38:12;;;;;;;6.97;6.37;;;54.10;16.60;;;;;;5015477;28;20199;-70
2023/06/01 12:40:38;;;;;;;6.60;6.00;;;54.00;17.00;;;;;;5015841;28;20994;-70
2023/06/01 12:43:05;;;;;;;8.10;7.40;;;54.00;17.00;;;;;;5015743;28;20968;-71